Time;durP1;ratioP1;P1;durP2;ratioP2;P2;SDS_P1;SDS_P2;PMS_P1;PMS_P2;Temp;Humidity;BMP_temperature;BMP_pressure;BME280_temperature;BME280_humidity;BME280_pressure;Samples;Min_cycle;Max_cycle;Signal;HPM_P1;HPM_P2
2023/10/16 00:00:47;;;;;;;11.00;7.20;;;;;;;4.88;100.00;98022.42;107056;1269;25292;-80
2023/10/16 00:03:41;;;;;;;14.00;8.30;;;;;;;4.84;99.93;98025.77;107062;1276;22541;-80
2023/10/16 00:06:12;;;;;;;10.80;6.80;;;;;;;4.82;99.79;98024.48;107135;1270;22811;-80
2023/10/16 00:08:47;;;;;;;9.20;6.70;;;;;;;4.79;99.80;98029.38;107024;1276;25358;-82
2023/10/16 00:11:18;;;;;;;9.80;6.70;;;;;;;4.76;99.82;98025.83;107012;1270;22715;-80
2023/10/16 00:13:47;;;;;;;8.80;6.40;;;;;;;4.75;99.84;98025.82;107121;1270;22617;-80
2023/10/16 00:16:18;;;;;;;9.80;6.90;;;;;;;4.70;99.92;98027.34;107127;1276;22581;-80
2023/10/16 00:18:46;;;;;;;9.70;7.10;;;;;;;4.63;99.70;98032.14;107063;1276;24382;-80
2023/10/16 00:21:14;;;;;;;10.30;5.80;;;;;;;4.57;99.60;98031.79;107042;1276;22570;-80
2023/10/16 00:23:42;;;;;;;11.20;6.30;;;;;;;4.53;99.87;98033.85;107060;1269;22530;-80
2023/10/16 00:26:21;;;;;;;10.10;6.70;;;;;;;4.45;99.96;98034.91;107069;1269;22553;-80
2023/10/16 00:31:42;;;;;;;10.10;6.80;;;;;;;4.33;99.70;98033.21;107044;1269;22550;-80
2023/10/16 00:34:19;;;;;;;8.30;6.00;;;;;;;4.26;99.81;98029.95;106939;1272;22535;-80
2023/10/16 00:36:54;;;;;;;8.10;5.80;;;;;;;4.23;99.72;98023.57;107078;1276;23009;-80
2023/10/16 00:39:28;;;;;;;8.30;6.20;;;;;;;4.23;99.93;98027.73;107069;1276;22524;-80
2023/10/16 00:41:58;;;;;;;8.10;7.00;;;;;;;4.25;99.96;98028.76;106970;1276;24484;-80
2023/10/16 00:44:38;;;;;;;7.40;6.30;;;;;;;4.24;100.00;98033.77;107005;1276;22526;-82
2023/10/16 00:47:09;;;;;;;9.10;5.70;;;;;;;4.27;99.97;98033.59;106913;1276;23461;-81
2023/10/16 00:49:41;;;;;;;7.10;5.70;;;;;;;4.30;100.00;98039.86;106987;1270;22674;-80
2023/10/16 00:52:10;;;;;;;6.80;5.30;;;;;;;4.36;100.00;98038.45;107098;1276;24367;-82
2023/10/16 00:54:39;;;;;;;7.60;5.50;;;;;;;4.38;100.00;98038.14;107041;1272;22650;-79
2023/10/16 00:57:10;;;;;;;7.70;5.10;;;;;;;4.40;100.00;98035.08;107169;1276;22605;-80
2023/10/16 00:59:39;;;;;;;7.20;5.20;;;;;;;4.42;100.00;98040.27;107164;1269;25482;-81
2023/10/16 01:04:43;;;;;;;8.90;5.40;;;;;;;4.48;100.00;98037.48;107105;1276;22624;-80
2023/10/16 01:07:14;;;;;;;8.30;5.50;;;;;;;4.50;100.00;98039.15;107107;1276;24530;-80
2023/10/16 01:09:46;;;;;;;9.10;5.10;;;;;;;4.49;100.00;98037.86;107107;1276;22472;-80
2023/10/16 01:12:20;;;;;;;7.90;5.20;;;;;;;4.49;100.00;98036.95;107075;1269;23296;-81
2023/10/16 01:14:48;;;;;;;7.80;5.40;;;;;;;4.54;100.00;98036.48;107056;1270;22632;-80
2023/10/16 01:17:29;;;;;;;6.90;5.50;;;;;;;4.55;100.00;98039.30;107005;1272;23311;-80
2023/10/16 01:19:59;;;;;;;8.10;4.60;;;;;;;4.59;100.00;98034.64;107242;1276;24200;-80
2023/10/16 01:22:29;;;;;;;7.40;5.40;;;;;;;4.61;100.00;98036.88;107066;1255;24356;-81
2023/10/16 01:24:59;;;;;;;6.90;4.60;;;;;;;4.65;100.00;98039.11;107206;1276;23490;-80
2023/10/16 01:27:33;;;;;;;9.20;5.10;;;;;;;4.66;99.87;98045.03;107238;1269;22532;-81
2023/10/16 01:30:01;;;;;;;6.20;4.70;;;;;;;4.64;99.84;98035.63;107265;1270;23919;-80
2023/10/16 01:32:31;;;;;;;6.50;4.40;;;;;;;4.70;99.91;98038.33;107220;1276;25274;-80
2023/10/16 01:35:00;;;;;;;6.60;4.80;;;;;;;4.73;99.89;98036.75;107106;1269;23126;-80
2023/10/16 01:37:29;;;;;;;6.10;4.70;;;;;;;4.72;99.53;98038.09;106940;1270;22747;-81
2023/10/16 01:42:45;;;;;;;7.70;4.80;;;;;;;4.76;99.21;98032.34;107047;1276;23049;-80
2023/10/16 01:45:15;;;;;;;6.60;4.60;;;;;;;4.76;99.21;98030.73;107376;1276;24331;-80
2023/10/16 01:47:43;;;;;;;5.80;5.20;;;;;;;4.77;99.04;98033.67;107940;1276;25573;-80
2023/10/16 01:50:17;;;;;;;7.90;4.00;;;;;;;4.77;98.46;98036.94;107097;1276;24435;-81
2023/10/16 01:52:45;;;;;;;7.90;4.40;;;;;;;4.80;98.49;98039.56;107134;1276;22691;-81
2023/10/16 01:55:16;;;;;;;6.30;4.10;;;;;;;4.81;98.42;98041.29;107144;1269;25455;-80
2023/10/16 01:57:44;;;;;;;8.70;4.80;;;;;;;4.83;98.49;98041.35;107033;1270;23356;-80
2023/10/16 02:00:16;;;;;;;6.40;4.20;;;;;;;4.83;97.93;98041.41;106941;1276;22525;-80
2023/10/16 02:02:47;;;;;;;7.60;4.20;;;;;;;4.83;98.01;98040.34;106962;1276;24212;-79
2023/10/16 02:05:15;;;;;;;7.90;4.50;;;;;;;4.85;97.79;98048.67;106973;1276;23273;-80
2023/10/16 02:07:45;;;;;;;8.10;4.40;;;;;;;4.88;97.57;98041.23;107098;1276;22609;-80
2023/10/16 02:10:13;;;;;;;7.20;4.40;;;;;;;4.90;97.23;98041.92;107098;1269;22551;-80
2023/10/16 02:12:41;;;;;;;6.70;4.30;;;;;;;4.89;96.96;98043.74;107008;1272;22633;-80
2023/10/16 02:15:09;;;;;;;6.00;4.30;;;;;;;4.88;97.42;98044.75;107238;1269;22537;-81
2023/10/16 02:17:40;;;;;;;6.50;4.10;;;;;;;4.90;97.33;98044.92;108186;1276;24203;-81
2023/10/16 02:20:12;;;;;;;6.10;4.30;;;;;;;4.90;97.32;98044.48;107909;1276;25281;-82
2023/10/16 02:22:40;;;;;;;8.20;4.40;;;;;;;4.90;96.75;98042.73;108133;1276;22582;-80
2023/10/16 02:25:11;;;;;;;6.40;4.80;;;;;;;4.89;96.92;98048.77;107707;1276;25254;-80
2023/10/16 02:27:41;;;;;;;6.90;3.70;;;;;;;4.87;97.04;98046.40;107149;1276;25409;-81
2023/10/16 02:33:10;;;;;;;6.10;4.00;;;;;;;4.84;96.83;98048.24;106963;1276;22564;-80
2023/10/16 02:35:42;;;;;;;6.60;3.90;;;;;;;4.81;97.20;98044.91;107183;1269;23229;-80
2023/10/16 02:38:13;;;;;;;6.50;4.70;;;;;;;4.80;96.82;98049.83;107180;1276;25412;-80
2023/10/16 02:40:44;;;;;;;7.30;4.90;;;;;;;4.79;96.99;98047.58;107233;1275;22633;-80
2023/10/16 02:43:18;;;;;;;7.40;4.70;;;;;;;4.80;97.16;98055.48;107104;1269;22635;-80
2023/10/16 02:45:51;;;;;;;7.60;5.00;;;;;;;4.78;96.76;98051.34;107160;1276;22653;-80
2023/10/16 02:48:21;;;;;;;6.20;4.10;;;;;;;4.77;96.83;98050.66;107219;1276;25513;-80
2023/10/16 02:50:50;;;;;;;8.10;4.10;;;;;;;4.78;96.86;98050.29;107064;1275;22597;-80
2023/10/16 02:53:22;;;;;;;7.70;4.20;;;;;;;4.80;97.01;98050.36;106917;1270;22545;-80
2023/10/16 02:55:58;;;;;;;6.80;4.50;;;;;;;4.80;96.84;98048.22;106940;1256;23888;-80
2023/10/16 02:58:28;;;;;;;8.70;4.70;;;;;;;4.80;96.30;98053.67;106790;1272;24239;-80
2023/10/16 03:00:58;;;;;;;7.80;4.20;;;;;;;4.84;96.40;98052.14;106995;1270;25364;-80
2023/10/16 03:03:27;;;;;;;6.90;4.40;;;;;;;4.86;96.64;98054.83;106916;1276;24351;-80
2023/10/16 03:05:58;;;;;;;7.10;4.20;;;;;;;4.86;96.19;98056.64;107099;1275;24350;-80
2023/10/16 03:08:32;;;;;;;9.60;4.50;;;;;;;4.88;96.19;98051.75;107140;1274;22563;-80
2023/10/16 03:11:05;;;;;;;9.00;4.60;;;;;;;4.90;95.91;98053.73;106980;1272;25354;-80
2023/10/16 03:13:36;;;;;;;9.00;4.40;;;;;;;4.92;96.11;98056.30;107107;1276;22539;-80
2023/10/16 03:16:07;;;;;;;7.40;4.30;;;;;;;4.94;95.51;98056.75;107118;1276;22569;-81
2023/10/16 03:18:35;;;;;;;5.90;3.50;;;;;;;4.92;95.08;98054.44;107065;1276;22548;-80
2023/10/16 03:23:46;;;;;;;5.70;4.00;;;;;;;4.94;95.61;98052.69;107102;1270;24267;-80
2023/10/16 03:26:26;;;;;;;22.00;19.60;;;;;;;4.98;95.40;98051.17;107148;1276;23285;-80
2023/10/16 03:28:56;;;;;;;45.00;37.90;;;;;;;4.99;94.88;98058.27;107129;1276;25366;-80
2023/10/16 03:31:24;;;;;;;24.80;17.40;;;;;;;4.97;94.98;98051.15;107005;1270;23049;-82
2023/10/16 03:33:53;;;;;;;15.90;9.00;;;;;;;4.99;94.80;98054.42;106983;1276;22545;-80
2023/10/16 03:36:22;;;;;;;10.60;6.30;;;;;;;5.00;95.05;98052.45;106965;1276;25246;-80
2023/10/16 03:38:50;;;;;;;12.80;7.30;;;;;;;5.05;94.97;98060.59;107047;1276;22580;-80
2023/10/16 03:43:58;;;;;;;11.80;5.70;;;;;;;5.06;94.46;98058.09;107137;1276;25469;-84
2023/10/16 03:46:27;;;;;;;19.40;8.20;;;;;;;5.05;94.41;98057.50;107024;1269;22548;-81
2023/10/16 03:48:56;;;;;;;12.80;5.90;;;;;;;5.07;94.57;98055.37;107121;1269;22537;-80
2023/10/16 03:51:24;;;;;;;9.70;5.00;;;;;;;5.12;94.50;98056.38;107124;1270;22524;-81
2023/10/16 03:53:52;;;;;;;13.90;6.40;;;;;;;5.13;94.23;98058.24;107033;1276;22544;-80
2023/10/16 03:56:20;;;;;;;71.30;33.10;;;;;;;5.14;93.97;98058.83;107095;1276;22664;-79
2023/10/16 03:58:49;;;;;;;19.40;9.60;;;;;;;5.14;93.82;98057.27;107143;1269;22526;-79
2023/10/16 04:01:23;;;;;;;53.20;23.70;;;;;;;5.15;93.85;98055.10;107116;1272;22543;-80
2023/10/16 04:03:56;;;;;;;27.10;12.20;;;;;;;5.18;93.98;98056.13;107180;1276;22779;-79
2023/10/16 04:06:26;;;;;;;9.90;5.10;;;;;;;5.22;94.00;98054.81;107179;1276;22533;-80
2023/10/16 04:08:55;;;;;;;8.50;4.60;;;;;;;5.22;93.78;98056.52;107156;1269;25424;-81
2023/10/16 04:11:24;;;;;;;12.70;6.00;;;;;;;5.20;93.22;98053.79;107208;1269;22543;-81
2023/10/16 04:13:52;;;;;;;8.50;5.10;;;;;;;5.21;93.36;98051.06;107059;1276;22537;-81
2023/10/16 04:21:43;;;;;;;12.10;5.70;;;;;;;5.23;93.06;98057.86;107195;1276;22668;-81
2023/10/16 04:24:44;;;;;;;12.30;5.90;;;;;;;5.21;92.95;98058.50;107290;1276;22564;-81
2023/10/16 04:30:32;;;;;;;14.00;6.70;;;;;;;5.26;93.42;98062.00;107213;1276;24423;-79
2023/10/16 04:32:47;;;;;;;17.10;10.40;;;;;;;5.26;93.01;98060.50;107205;1254;23872;-83
2023/10/16 04:38:30;;;;;;;29.90;12.50;;;;;;;5.25;93.24;98062.35;106826;1276;25291;-84
2023/10/16 04:46:55;;;;;;;12.60;5.80;;;;;;;5.21;92.70;98065.07;107089;1258;22530;-82
2023/10/16 04:49:19;;;;;;;12.30;6.10;;;;;;;5.22;93.16;98063.89;107161;1276;22560;-82
2023/10/16 04:52:01;;;;;;;10.80;5.90;;;;;;;5.24;93.30;98060.27;107169;1269;23225;-80
2023/10/16 05:00:12;;;;;;;10.90;5.60;;;;;;;5.24;93.06;98070.42;107128;1276;24244;-80
2023/10/16 05:02:52;;;;;;;8.00;5.10;;;;;;;5.26;93.18;98077.07;106990;1276;24309;-80
2023/10/16 05:05:45;;;;;;;9.60;5.70;;;;;;;5.27;93.16;98078.08;106991;1269;22580;-80
2023/10/16 05:08:31;;;;;;;7.80;4.70;;;;;;;5.25;92.97;98073.86;107100;1269;24224;-80
2023/10/16 05:19:45;;;;;;;10.20;6.90;;;;;;;5.24;92.70;98077.69;107178;1276;22525;-81
2023/10/16 06:15:20;;;;;;;10.10;5.80;;;;;;;5.38;92.60;98129.23;107508;1273;22520;-79
2023/10/16 06:17:51;;;;;;;7.80;5.30;;;;;;;5.39;92.53;98135.75;107152;1269;22691;-81
2023/10/16 06:20:21;;;;;;;9.50;5.30;;;;;;;5.38;91.88;98132.05;107182;1277;22633;-79
2023/10/16 06:22:51;;;;;;;9.50;5.10;;;;;;;5.38;92.08;98141.73;106880;1276;24360;-82
2023/10/16 06:25:28;;;;;;;9.90;5.20;;;;;;;5.38;92.26;98141.27;107184;1266;24207;-80
2023/10/16 06:27:57;;;;;;;8.10;5.00;;;;;;;5.38;92.14;98140.50;107174;1269;22532;-81
2023/10/16 06:30:25;;;;;;;8.90;5.40;;;;;;;5.34;92.12;98146.73;107230;1273;24315;-81
2023/10/16 06:32:54;;;;;;;11.80;5.50;;;;;;;5.32;92.51;98144.42;107162;1277;22520;-81
2023/10/16 06:35:26;;;;;;;11.70;6.00;;;;;;;5.33;92.51;98147.58;106912;1277;26487;-80
2023/10/16 06:37:55;;;;;;;38.00;15.70;;;;;;;5.34;92.66;98155.39;106882;1269;25358;-80
2023/10/16 06:40:26;;;;;;;16.90;7.80;;;;;;;5.35;92.25;98158.87;107087;1269;22525;-81
2023/10/16 06:43:09;;;;;;;11.30;6.50;;;;;;;5.31;92.19;98155.48;107152;1276;23129;-80
2023/10/16 06:45:55;;;;;;;61.40;21.00;;;;;;;5.32;92.39;98156.02;107044;1269;22699;-80
2023/10/16 06:48:27;;;;;;;13.80;7.20;;;;;;;5.35;92.72;98162.81;107093;1269;24570;-82
2023/10/16 06:51:03;;;;;;;12.20;6.00;;;;;;;5.33;92.72;98167.08;107111;1276;25303;-81
2023/10/16 06:53:34;;;;;;;10.50;6.50;;;;;;;5.31;92.47;98167.29;107160;1276;22527;-82
2023/10/16 06:56:04;;;;;;;10.20;6.70;;;;;;;5.31;92.70;98172.30;107115;1271;22549;-81
2023/10/16 06:58:35;;;;;;;8.80;6.30;;;;;;;5.31;92.83;98171.03;107206;1276;24246;-82
2023/10/16 07:01:04;;;;;;;9.80;5.50;;;;;;;5.34;92.51;98169.60;107243;1269;25274;-81
2023/10/16 07:03:33;;;;;;;11.90;6.10;;;;;;;5.33;92.18;98169.28;107338;1270;24361;-79
2023/10/16 07:06:05;;;;;;;11.50;5.80;;;;;;;5.30;92.42;98176.09;107165;1273;25597;-79
2023/10/16 07:08:33;;;;;;;9.50;5.60;;;;;;;5.29;92.49;98179.14;107158;1269;22531;-80
2023/10/16 07:11:04;;;;;;;10.70;6.00;;;;;;;5.28;92.66;98174.96;107234;1276;25233;-79
2023/10/16 07:13:34;;;;;;;7.70;5.40;;;;;;;5.27;92.60;98171.70;107355;1269;25278;-77
2023/10/16 07:16:04;;;;;;;8.40;6.20;;;;;;;5.25;92.67;98176.49;107376;1274;22524;-80
2023/10/16 07:18:33;;;;;;;11.50;6.40;;;;;;;5.26;92.84;98180.89;107389;1270;25233;-80
2023/10/16 07:23:36;;;;;;;10.80;7.30;;;;;;;5.29;92.77;98184.20;107199;1272;23885;-81
2023/10/16 07:26:07;;;;;;;9.80;6.10;;;;;;;5.29;92.52;98181.65;107143;1277;25405;-80
2023/10/16 07:28:38;;;;;;;7.80;5.10;;;;;;;5.27;93.01;98181.11;107152;1277;22602;-80
2023/10/16 07:31:10;;;;;;;9.30;6.00;;;;;;;5.30;92.97;98180.30;107055;1277;25517;-79
2023/10/16 07:33:41;;;;;;;10.20;7.20;;;;;;;5.31;92.87;98183.16;107066;1278;23301;-85
2023/10/16 07:36:12;;;;;;;10.20;7.10;;;;;;;5.31;92.95;98179.67;107157;1277;22655;-80
2023/10/16 07:38:44;;;;;;;8.70;6.30;;;;;;;5.33;93.28;98179.38;107255;1277;22587;-80
2023/10/16 07:41:13;;;;;;;9.10;5.80;;;;;;;5.40;93.35;98179.59;107244;1277;22543;-81
2023/10/16 07:43:45;;;;;;;8.70;5.90;;;;;;;5.42;93.43;98185.27;107092;1278;24213;-84
2023/10/16 07:46:27;;;;;;;10.10;6.00;;;;;;;5.44;93.26;98182.55;107041;1278;22527;-81
2023/10/16 07:49:18;;;;;;;9.50;6.10;;;;;;;5.44;93.25;98182.34;107137;1278;22527;-80
2023/10/16 07:51:47;;;;;;;14.30;6.50;;;;;;;5.50;93.89;98180.77;107073;1277;22551;-79
2023/10/16 07:54:17;;;;;;;12.30;6.20;;;;;;;5.50;93.74;98180.82;107057;1277;22661;-79
2023/10/16 07:56:45;;;;;;;13.70;6.80;;;;;;;5.51;93.63;98184.19;107106;1277;24236;-81
2023/10/16 07:59:18;;;;;;;10.30;6.00;;;;;;;5.54;93.42;98179.14;107186;1277;22530;-83
2023/10/16 08:01:52;;;;;;;9.90;6.10;;;;;;;5.54;93.76;98178.16;106957;1279;24386;-83
2023/10/16 08:07:04;;;;;;;16.20;9.80;;;;;;;5.62;93.99;98183.89;107131;1277;25271;-82
2023/10/16 08:14:54;;;;;;;15.40;7.00;;;;;;;5.64;93.88;98186.63;107201;1278;22534;-80
2023/10/16 08:17:26;;;;;;;12.30;6.50;;;;;;;5.66;93.90;98184.28;107070;1277;22618;-81
2023/10/16 08:19:54;;;;;;;12.30;7.90;;;;;;;5.69;93.66;98187.92;107149;1277;25475;-81
2023/10/16 08:22:25;;;;;;;10.40;7.20;;;;;;;5.67;93.52;98187.23;107190;1277;27208;-82
2023/10/16 08:25:04;;;;;;;13.00;7.50;;;;;;;5.68;93.47;98187.86;107043;1277;23359;-80
2023/10/16 08:30:34;;;;;;;13.10;6.90;;;;;;;5.71;93.72;98194.52;106860;1282;22540;-81
2023/10/16 08:33:09;;;;;;;14.30;7.40;;;;;;;5.72;93.39;98200.20;106875;1282;22536;-81
2023/10/16 08:35:45;;;;;;;13.10;7.80;;;;;;;5.73;92.75;98207.24;106854;1282;22568;-81
2023/10/16 08:38:25;;;;;;;21.40;8.80;;;;;;;5.73;93.11;98205.16;106956;1282;24219;-81
2023/10/16 08:40:59;;;;;;;31.40;24.60;;;;;;;5.78;93.27;98203.42;106962;1282;22812;-82
2023/10/16 08:43:39;;;;;;;22.20;18.00;;;;;;;5.78;92.68;98204.61;106894;1278;25494;-80
2023/10/16 08:46:18;;;;;;;13.10;10.30;;;;;;;5.76;92.45;98208.39;107070;1282;22555;-79
2023/10/16 08:49:01;;;;;;;17.00;12.90;;;;;;;5.74;92.32;98209.83;106752;1284;24228;-81
2023/10/16 08:51:31;;;;;;;17.80;14.10;;;;;;;5.73;92.44;98203.23;106801;1284;23035;-82
2023/10/16 08:54:04;;;;;;;16.00;12.50;;;;;;;5.76;92.43;98208.66;106697;1284;26521;-81
2023/10/16 08:56:33;;;;;;;13.80;9.10;;;;;;;5.77;92.18;98207.38;106686;1282;23242;-80
2023/10/16 08:59:01;;;;;;;12.00;8.60;;;;;;;5.75;91.96;98211.31;106881;1282;26511;-81
2023/10/16 09:01:32;;;;;;;10.80;7.70;;;;;;;5.71;92.04;98215.38;106775;1282;24244;-79
2023/10/16 09:04:08;;;;;;;11.40;6.90;;;;;;;5.73;92.07;98226.55;106171;1284;22556;-78
2023/10/16 09:06:37;;;;;;;11.80;7.20;;;;;;;5.74;91.97;98222.13;106766;1278;24354;-79
2023/10/16 09:09:12;;;;;;;12.50;8.60;;;;;;;5.72;91.88;98230.13;106607;1278;24536;-79
2023/10/16 09:11:45;;;;;;;12.60;7.70;;;;;;;5.69;91.86;98228.19;107078;1272;22569;-79
2023/10/16 09:14:17;;;;;;;10.70;7.50;;;;;;;5.69;92.03;98230.55;106754;1257;24222;-79
2023/10/16 09:16:51;;;;;;;12.70;8.70;;;;;;;5.73;92.38;98231.89;107108;1278;22675;-79
2023/10/16 09:19:33;;;;;;;17.00;10.00;;;;;;;5.74;92.24;98230.69;107183;1278;22565;-79
2023/10/16 09:22:08;;;;;;;10.90;8.30;;;;;;;5.74;92.24;98231.38;107141;1278;22614;-79
2023/10/16 09:24:38;;;;;;;14.60;8.10;;;;;;;5.73;92.00;98237.04;107010;1278;22632;-78
2023/10/16 09:27:22;;;;;;;12.30;7.70;;;;;;;5.73;92.23;98229.17;107049;1273;22762;-78
2023/10/16 09:29:56;;;;;;;11.80;7.10;;;;;;;5.76;92.35;98236.79;107018;1278;22540;-80
2023/10/16 09:32:36;;;;;;;12.80;8.10;;;;;;;5.77;91.80;98235.52;107355;1277;22649;-79
2023/10/16 09:35:06;;;;;;;11.40;8.70;;;;;;;5.71;91.53;98234.95;107219;1277;22522;-79
2023/10/16 09:37:37;;;;;;;12.90;9.60;;;;;;;5.68;91.82;98234.70;107140;1277;24228;-80
2023/10/16 09:40:18;;;;;;;15.30;11.10;;;;;;;5.71;91.93;98239.32;107211;1277;25253;-79
2023/10/16 09:43:08;;;;;;;14.50;9.00;;;;;;;5.68;91.80;98235.52;107226;1277;25284;-79
2023/10/16 09:45:36;;;;;;;17.50;10.20;;;;;;;5.69;91.54;98240.66;107169;1277;24482;-78
2023/10/16 09:48:08;;;;;;;12.40;8.00;;;;;;;5.67;91.34;98243.42;107175;1266;229386;-79
2023/10/16 09:50:37;;;;;;;10.00;7.20;;;;;;;5.65;91.37;98242.28;107004;1277;22778;-78
2023/10/16 09:53:07;;;;;;;11.00;8.10;;;;;;;5.66;91.67;98247.59;107224;1259;22565;-79
2023/10/16 09:55:41;;;;;;;14.00;7.40;;;;;;;5.69;92.02;98243.38;107239;1277;22962;-78
2023/10/16 09:58:11;;;;;;;10.90;6.80;;;;;;;5.68;91.47;98250.00;107219;1278;22542;-78
2023/10/16 10:00:44;;;;;;;11.40;7.20;;;;;;;5.66;91.38;98247.01;107084;1278;24348;-78
2023/10/16 10:03:14;;;;;;;13.10;7.00;;;;;;;5.64;91.60;98244.25;107098;1277;23873;-79
2023/10/16 10:06:08;;;;;;;9.80;7.30;;;;;;;5.69;91.89;98245.20;107063;1278;22630;-80
2023/10/16 10:11:38;;;;;;;11.70;8.10;;;;;;;5.86;92.03;98249.41;106955;1278;22573;-82
2023/10/16 10:14:26;;;;;;;14.50;9.60;;;;;;;5.93;91.63;98246.68;107179;1278;22540;-82
2023/10/16 10:17:00;;;;;;;19.00;9.60;;;;;;;5.97;91.43;98250.41;107019;1278;24339;-81
2023/10/16 10:19:36;;;;;;;15.20;7.60;;;;;;;6.04;91.63;98247.39;107075;1262;24382;-82
2023/10/16 10:22:17;;;;;;;13.80;7.40;;;;;;;6.08;91.40;98248.91;107087;1278;22657;-83
2023/10/16 10:25:06;;;;;;;23.20;9.10;;;;;;;6.06;91.35;98249.64;107130;1278;22668;-80
2023/10/16 10:27:47;;;;;;;13.30;9.70;;;;;;;6.05;91.27;98244.50;107139;1277;25422;-81
2023/10/16 10:30:25;;;;;;;16.00;8.80;;;;;;;6.08;90.87;98243.77;107186;1277;23415;-81
2023/10/16 10:32:59;;;;;;;13.80;7.80;;;;;;;6.13;90.80;98239.84;107105;1277;25404;-80
2023/10/16 10:35:28;;;;;;;14.10;8.70;;;;;;;6.17;90.34;98234.77;107217;1277;25460;-82
2023/10/16 10:38:24;;;;;;;13.40;8.40;;;;;;;6.21;89.64;98235.06;107224;1277;24225;-81
2023/10/16 10:41:10;;;;;;;13.00;8.10;;;;;;;6.24;89.10;98235.98;107108;1277;24364;-82
2023/10/16 10:43:46;;;;;;;12.10;7.40;;;;;;;6.27;88.51;98241.61;107111;1277;22529;-80
2023/10/16 10:46:15;;;;;;;11.10;7.50;;;;;;;6.32;88.99;98236.70;107315;1277;25055;-81
2023/10/16 10:48:43;;;;;;;12.20;6.80;;;;;;;6.43;89.24;98230.30;107187;1277;24398;-81
2023/10/16 10:51:15;;;;;;;12.50;6.80;;;;;;;6.52;88.84;98235.32;107099;1277;22543;-81
2023/10/16 10:53:57;;;;;;;12.10;7.10;;;;;;;6.60;88.02;98227.04;107202;1275;24244;-81
2023/10/16 10:56:41;;;;;;;15.20;8.30;;;;;;;6.62;87.58;98225.43;107938;1277;25466;-81
2023/10/16 10:59:10;;;;;;;14.30;8.70;;;;;;;6.70;87.45;98220.20;107440;1277;25364;-82
2023/10/16 11:01:51;;;;;;;16.50;8.10;;;;;;;6.78;88.00;98219.78;107218;1277;22549;-82
2023/10/16 11:04:21;;;;;;;12.00;6.00;;;;;;;6.89;87.27;98219.64;107231;1277;25183;-81
2023/10/16 11:06:54;;;;;;;12.40;8.10;;;;;;;6.93;86.96;98219.84;107287;1277;22559;-79
2023/10/16 11:09:26;;;;;;;15.20;8.10;;;;;;;7.00;86.24;98225.16;107179;1259;23995;-80
2023/10/16 11:11:55;;;;;;;13.80;6.70;;;;;;;7.02;85.55;98225.16;107187;1278;22623;-81
2023/10/16 11:14:41;;;;;;;15.10;8.00;;;;;;;7.05;85.39;98226.55;107138;1278;22549;-81
2023/10/16 11:17:09;;;;;;;11.80;7.50;;;;;;;7.10;85.53;98227.63;107101;1278;22952;-82
2023/10/16 11:19:47;;;;;;;17.40;8.20;;;;;;;7.13;84.97;98223.98;107094;1279;23150;-81
2023/10/16 11:22:20;;;;;;;18.10;8.40;;;;;;;7.21;85.15;98222.86;107151;1279;22729;-81
2023/10/16 11:24:48;;;;;;;11.00;7.30;;;;;;;7.27;85.41;98222.98;107305;1267;23175;-82
2023/10/16 11:27:17;;;;;;;9.70;7.10;;;;;;;7.31;84.62;98221.41;107447;1273;25255;-81
2023/10/16 11:29:46;;;;;;;14.60;7.50;;;;;;;7.26;83.70;98219.54;108295;1278;22616;-81
2023/10/16 11:32:17;;;;;;;12.60;7.20;;;;;;;7.20;82.55;98212.52;107317;1278;24141;-82
2023/10/16 11:34:49;;;;;;;13.90;9.20;;;;;;;7.12;83.33;98211.40;107289;1277;23341;-82
2023/10/16 11:37:25;;;;;;;16.70;9.20;;;;;;;7.11;82.88;98216.16;107258;1277;24233;-83
2023/10/16 11:39:57;;;;;;;16.10;9.10;;;;;;;7.03;82.64;98214.23;107231;1277;22994;-80
2023/10/16 11:42:26;;;;;;;16.00;11.00;;;;;;;6.99;83.06;98209.24;107233;1277;25339;-79
2023/10/16 11:44:54;;;;;;;15.10;9.30;;;;;;;6.98;83.31;98207.05;107350;1277;22573;-80
2023/10/16 11:47:23;;;;;;;12.90;8.60;;;;;;;6.99;84.10;98201.42;107169;1277;22668;-80
2023/10/16 11:49:54;;;;;;;16.90;8.40;;;;;;;7.01;83.86;98202.02;107086;1278;25353;-80
2023/10/16 11:52:27;;;;;;;15.50;9.00;;;;;;;7.00;83.81;98206.14;107076;1278;24214;-80
2023/10/16 11:54:58;;;;;;;13.70;10.00;;;;;;;7.00;83.74;98204.84;107053;1278;25529;-80
2023/10/16 11:57:27;;;;;;;19.00;10.80;;;;;;;7.02;84.14;98206.09;106938;1278;22548;-81
2023/10/16 11:59:55;;;;;;;14.30;8.50;;;;;;;7.04;83.60;98202.61;106989;1278;24203;-80
2023/10/16 12:02:29;;;;;;;17.10;10.00;;;;;;;7.03;83.46;98197.13;106960;1278;23921;-81
2023/10/16 12:05:05;;;;;;;14.20;8.80;;;;;;;7.09;84.15;98199.34;106989;1279;22592;-80
2023/10/16 12:07:34;;;;;;;14.40;8.40;;;;;;;7.17;83.84;98198.16;107052;1277;25482;-80
2023/10/16 12:10:05;;;;;;;12.90;8.10;;;;;;;7.21;84.00;98198.36;106963;1263;25355;-80
2023/10/16 12:12:33;;;;;;;13.30;8.10;;;;;;;7.26;83.90;98202.44;107072;1278;25369;-81
2023/10/16 12:15:02;;;;;;;15.40;8.10;;;;;;;7.32;83.25;98202.70;107044;1279;25058;-81
2023/10/16 12:17:30;;;;;;;12.50;7.00;;;;;;;7.33;82.42;98203.71;106980;1279;22556;-82
2023/10/16 12:19:58;;;;;;;12.90;7.30;;;;;;;7.33;81.80;98200.07;107006;1278;24049;-81
2023/10/16 12:22:26;;;;;;;14.00;8.40;;;;;;;7.31;81.61;98194.50;107007;1255;24228;-82
2023/10/16 12:24:56;;;;;;;12.00;7.10;;;;;;;7.32;81.76;98194.83;107027;1278;22529;-81
2023/10/16 12:27:25;;;;;;;17.70;7.30;;;;;;;7.36;82.04;98196.69;107203;1275;23293;-80
2023/10/16 12:29:53;;;;;;;13.20;7.90;;;;;;;7.44;82.69;98195.66;106996;1278;25361;-79
2023/10/16 12:32:21;;;;;;;15.90;8.40;;;;;;;7.50;81.82;98190.77;107105;1278;22568;-79
2023/10/16 12:34:49;;;;;;;19.50;8.70;;;;;;;7.51;81.19;98189.38;106944;1278;24299;-79
2023/10/16 12:37:22;;;;;;;13.80;9.10;;;;;;;7.51;81.98;98187.77;107015;1278;25494;-78
2023/10/16 12:39:52;;;;;;;17.40;10.20;;;;;;;7.53;81.78;98189.75;107171;1275;24035;-78
2023/10/16 12:42:21;;;;;;;15.20;9.80;;;;;;;7.56;81.72;98190.02;107091;1277;24190;-80
2023/10/16 12:44:49;;;;;;;15.90;11.50;;;;;;;7.54;81.43;98189.75;107166;1278;24252;-79
2023/10/16 12:47:19;;;;;;;17.10;11.60;;;;;;;7.54;81.66;98189.84;107116;1278;25284;-80
2023/10/16 12:50:05;;;;;;;19.90;17.20;;;;;;;7.57;82.21;98196.06;107137;1278;24326;-83
2023/10/16 12:52:33;;;;;;;15.60;11.60;;;;;;;7.59;82.61;98198.04;107083;1275;26647;-83
2023/10/16 12:55:02;;;;;;;13.70;8.90;;;;;;;7.61;82.78;98194.12;107159;1275;24201;-82
2023/10/16 12:57:30;;;;;;;13.90;9.20;;;;;;;7.61;82.48;98197.55;107179;1277;24202;-81
2023/10/16 12:59:58;;;;;;;16.10;9.50;;;;;;;7.51;82.38;98209.87;107225;1277;25340;-81
2023/10/16 13:02:26;;;;;;;10.30;7.50;;;;;;;7.41;82.98;98217.96;107814;1277;23698;-83
2023/10/16 13:04:55;;;;;;;15.90;8.60;;;;;;;7.16;84.29;98214.34;107040;1277;22541;-82
2023/10/16 13:07:26;;;;;;;10.20;7.00;;;;;;;6.61;86.33;98202.92;107280;1277;22535;-82
2023/10/16 13:10:14;;;;;;;10.70;7.30;;;;;;;6.24;87.66;98204.23;107151;1278;26501;-83
2023/10/16 13:12:43;;;;;;;13.10;8.30;;;;;;;6.05;88.82;98197.27;107089;1278;22519;-82
2023/10/16 13:15:16;;;;;;;14.50;7.30;;;;;;;5.92;89.51;98197.99;107199;1275;25421;-82
2023/10/16 13:17:48;;;;;;;11.20;8.00;;;;;;;5.89;90.82;98195.73;107005;1278;23332;-81
2023/10/16 13:20:17;;;;;;;15.00;7.80;;;;;;;5.89;90.64;98196.10;107127;1278;25459;-85
2023/10/16 13:22:49;;;;;;;13.80;8.40;;;;;;;5.98;90.20;98187.92;107247;1278;23361;-82
2023/10/16 13:25:25;;;;;;;11.30;8.80;;;;;;;6.08;90.78;98188.29;107931;1278;22972;-82
2023/10/16 13:27:55;;;;;;;12.70;8.80;;;;;;;6.26;91.90;98182.83;109135;1278;24320;-83
2023/10/16 13:30:25;;;;;;;12.20;8.90;;;;;;;6.56;91.23;98181.02;107222;1272;22789;-81
2023/10/16 13:32:54;;;;;;;13.80;10.00;;;;;;;6.90;91.17;98179.13;107210;1278;25373;-80
2023/10/16 13:35:23;;;;;;;13.60;9.60;;;;;;;7.16;91.84;98178.27;108070;1277;22596;-81
2023/10/16 13:37:51;;;;;;;16.80;9.90;;;;;;;7.33;91.93;98182.65;108554;1273;24174;-81
2023/10/16 13:40:24;;;;;;;14.20;9.70;;;;;;;7.73;91.59;98176.71;108787;1272;22545;-81
2023/10/16 13:42:55;;;;;;;14.20;11.20;;;;;;;8.00;90.71;98170.34;107791;1279;22712;-83
2023/10/16 13:45:25;;;;;;;13.40;10.30;;;;;;;8.42;90.98;98163.54;107218;1278;23924;-82
2023/10/16 13:47:55;;;;;;;16.50;10.20;;;;;;;8.77;90.85;98164.83;107179;1278;24267;-82